createdAt,value
2022-08-16T00:00:41.793Z,99177.75
2022-08-16T00:03:13.532Z,99184.22
2022-08-16T00:05:48.624Z,99182.53
2022-08-16T00:08:30.626Z,99192.72
2022-08-16T00:11:05.601Z,99180.56
2022-08-16T00:13:32.508Z,99177.03
2022-08-16T00:16:57.973Z,99177.25
2022-08-16T00:19:04.957Z,99180.31
2022-08-16T00:21:33.769Z,99176.47
2022-08-16T00:24:00.502Z,99180.47
2022-08-16T00:26:36.008Z,99177.34
2022-08-16T00:29:15.678Z,99182.66
2022-08-16T00:31:58.808Z,99181.13
2022-08-16T00:34:41.362Z,99186.38
2022-08-16T00:37:12.294Z,99186.81
2022-08-16T00:39:44.362Z,99183.47
2022-08-16T00:42:11.031Z,99182.50
2022-08-16T00:44:39.852Z,99173.03
2022-08-16T00:47:13.428Z,99169.25
2022-08-16T00:49:44.800Z,99176.13
2022-08-16T00:52:30.216Z,99184.63
2022-08-16T00:54:59.375Z,99182.06
2022-08-16T00:57:27.425Z,99181.53
2022-08-16T01:00:19.213Z,99180.94
2022-08-16T01:02:48.804Z,99182.53
2022-08-16T01:05:15.805Z,99183.81
2022-08-16T01:07:52.062Z,99174.91
2022-08-16T01:10:32.312Z,99182.13
2022-08-16T01:13:09.036Z,99189.44
2022-08-16T01:15:47.772Z,99194.53
2022-08-16T01:18:40.558Z,99201.06
2022-08-16T01:21:36.682Z,99198.50
2022-08-16T01:24:45.294Z,99197.50
2022-08-16T01:27:47.636Z,99197.50
2022-08-16T01:30:21.729Z,99194.13
2022-08-16T01:33:01.284Z,99204.56
2022-08-16T01:35:41.973Z,99208.66
2022-08-16T01:38:19.380Z,99195.69
2022-08-16T01:40:47.666Z,99197.22
2022-08-16T01:43:14.745Z,99194.69
2022-08-16T01:45:43.420Z,99192.00
2022-08-16T01:48:19.165Z,99196.97
2022-08-16T01:51:09.407Z,99202.84
2022-08-16T01:53:40.467Z,99201.19
2022-08-16T01:56:08.141Z,99202.59
2022-08-16T01:58:50.984Z,99194.56
2022-08-16T02:01:18.222Z,99198.81
2022-08-16T02:03:44.890Z,99189.81
2022-08-16T02:06:34.498Z,99194.91
2022-08-16T02:09:05.157Z,99189.69
2022-08-16T02:11:47.743Z,99180.94
2022-08-16T02:14:27.406Z,99181.22
2022-08-16T02:16:56.430Z,99176.16
2022-08-16T02:19:25.347Z,99180.63
2022-08-16T02:22:34.961Z,99186.00
2022-08-16T02:25:02.494Z,99176.28
2022-08-16T02:27:29.439Z,99176.16
2022-08-16T02:30:05.518Z,99182.72
2022-08-16T02:32:49.263Z,99175.66
2022-08-16T02:35:23.219Z,99180.88
2022-08-16T02:37:52.595Z,99181.75
2022-08-16T02:40:22.332Z,99189.63
2022-08-16T02:42:50.673Z,99192.13
2022-08-16T02:45:27.757Z,99188.13
2022-08-16T02:48:01.867Z,99187.91
2022-08-16T02:51:06.080Z,99194.47
2022-08-16T02:53:29.128Z,99189.34
2022-08-16T02:55:56.916Z,99190.31
2022-08-16T02:58:24.861Z,99190.31
2022-08-16T03:00:55.918Z,99193.22
2022-08-16T03:03:24.404Z,99185.94
2022-08-16T03:05:52.580Z,99184.78
2022-08-16T03:08:52.074Z,99187.69
2022-08-16T03:11:16.766Z,99190.19
2022-08-16T03:13:45.615Z,99191.63
2022-08-16T03:16:32.814Z,99191.53
2022-08-16T03:19:01.810Z,99191.50
2022-08-16T03:21:28.697Z,99189.78
2022-08-16T03:24:29.059Z,99194.97
2022-08-16T03:26:58.097Z,99201.66
2022-08-16T03:29:30.976Z,99204.75
2022-08-16T03:32:01.712Z,99202.09
2022-08-16T03:34:29.837Z,99203.75
2022-08-16T03:36:56.842Z,99216.34
2022-08-16T03:39:23.663Z,99207.44
2022-08-16T03:41:51.243Z,99216.28
2022-08-16T03:44:44.381Z,99222.53
2022-08-16T03:47:12.716Z,99223.53
2022-08-16T03:49:45.583Z,99230.25
2022-08-16T03:52:12.203Z,99235.91
2022-08-16T03:54:39.112Z,99231.94
2022-08-16T03:57:20.735Z,99233.03
2022-08-16T03:59:47.394Z,99228.44
2022-08-16T04:02:22.011Z,99238.59
2022-08-16T04:04:50.240Z,99231.44
2022-08-16T04:07:17.288Z,99234.38
2022-08-16T04:09:44.885Z,99236.91
2022-08-16T04:12:54.377Z,99240.09
2022-08-16T04:14:59.766Z,99243.53
2022-08-16T04:17:29.151Z,99252.63
2022-08-16T04:19:58.197Z,99250.47
2022-08-16T04:22:27.641Z,99251.31
2022-08-16T04:24:55.430Z,99250.47
2022-08-16T04:27:29.062Z,99251.56
2022-08-16T04:30:02.887Z,99251.69
2022-08-16T04:32:30.967Z,99253.91
2022-08-16T04:34:57.612Z,99243.75
2022-08-16T04:37:24.285Z,99235.06
2022-08-16T04:39:55.681Z,99237.16
2022-08-16T04:42:26.383Z,99235.13
2022-08-16T04:44:56.846Z,99236.25
2022-08-16T04:47:32.995Z,99236.91
2022-08-16T04:50:05.097Z,99236.50
2022-08-16T04:52:33.468Z,99227.50
2022-08-16T04:55:12.053Z,99237.56
2022-08-16T04:57:39.580Z,99235.13
2022-08-16T05:00:30.615Z,99248.16
2022-08-16T05:03:07.049Z,99242.84
2022-08-16T05:05:45.460Z,99240.16
2022-08-16T05:08:29.231Z,99241.91
2022-08-16T05:11:03.699Z,99244.47
2022-08-16T05:13:40.977Z,99249.41
2022-08-16T05:16:19.774Z,99249.34
2022-08-16T05:18:53.624Z,99258.50
2022-08-16T05:21:23.444Z,99258.91
2022-08-16T05:23:55.936Z,99264.22
2022-08-16T05:26:28.157Z,99274.69
2022-08-16T05:28:59.081Z,99269.91
2022-08-16T05:31:29.307Z,99273.59
2022-08-16T05:34:03.122Z,99268.31
2022-08-16T05:36:36.589Z,99271.56
2022-08-16T05:39:06.714Z,99274.53
2022-08-16T05:41:45.410Z,99268.47
2022-08-16T05:44:24.241Z,99266.34
2022-08-16T05:46:56.804Z,99261.00
2022-08-16T05:49:25.213Z,99260.41
2022-08-16T05:52:05.470Z,99264.66
2022-08-16T05:54:40.898Z,99262.47
2022-08-16T05:57:13.875Z,99259.53
2022-08-16T05:59:41.898Z,99271.41
2022-08-16T06:02:08.526Z,99266.94
2022-08-16T06:04:37.477Z,99273.75
2022-08-16T06:07:06.786Z,99268.50
2022-08-16T06:09:42.705Z,99268.78
2022-08-16T06:12:27.177Z,99269.19
2022-08-16T06:14:59.177Z,99266.78
2022-08-16T06:17:34.087Z,99262.41
2022-08-16T06:20:34.728Z,99263.00
2022-08-16T06:23:03.401Z,99273.75
2022-08-16T06:25:36.771Z,99273.13
2022-08-16T06:28:10.161Z,99273.47
2022-08-16T06:30:45.300Z,99275.81
2022-08-16T06:33:22.392Z,99280.97
2022-08-16T06:35:55.196Z,99278.75
2022-08-16T06:38:34.090Z,99284.97
2022-08-16T06:41:13.619Z,99284.41
2022-08-16T06:43:41.076Z,99289.81
2022-08-16T06:46:10.000Z,99287.00
2022-08-16T06:48:43.144Z,99278.53
2022-08-16T06:51:12.113Z,99285.59
2022-08-16T06:53:41.571Z,99277.91
2022-08-16T06:56:14.758Z,99280.75
2022-08-16T06:58:50.199Z,99276.72
2022-08-16T07:01:20.156Z,99284.75
2022-08-16T07:03:55.424Z,99284.22
2022-08-16T07:06:26.529Z,99283.59
2022-08-16T07:08:54.814Z,99286.81
2022-08-16T07:11:48.106Z,99283.13
2022-08-16T07:14:26.224Z,99285.00
2022-08-16T07:16:58.212Z,99286.31
2022-08-16T07:19:33.562Z,99286.56
2022-08-16T07:22:52.385Z,99289.13
2022-08-16T07:25:00.712Z,99282.88
2022-08-16T07:27:27.744Z,99289.44
2022-08-16T07:29:55.609Z,99286.69
2022-08-16T07:32:29.620Z,99272.69
2022-08-16T07:34:58.340Z,99281.03
2022-08-16T07:37:25.076Z,99284.78
2022-08-16T07:39:52.144Z,99280.69
2022-08-16T07:42:34.768Z,99292.59
2022-08-16T07:45:03.023Z,99290.34
2022-08-16T07:47:36.085Z,99294.00
2022-08-16T07:50:07.568Z,99284.03
2022-08-16T07:52:34.930Z,99293.69
2022-08-16T07:55:07.720Z,99287.41
2022-08-16T07:57:38.090Z,99291.09
2022-08-16T08:00:21.233Z,99287.56
2022-08-16T08:02:53.362Z,99287.56
2022-08-16T08:05:29.720Z,99284.22
2022-08-16T08:08:02.301Z,99283.03
2022-08-16T08:10:39.273Z,99286.72
2022-08-16T08:13:07.732Z,99285.88
2022-08-16T08:15:34.576Z,99289.94
2022-08-16T08:18:29.446Z,99286.94
2022-08-16T08:20:59.581Z,99291.44
2022-08-16T08:23:27.034Z,99293.47
2022-08-16T08:25:55.902Z,99299.38
2022-08-16T08:28:22.817Z,99298.53
2022-08-16T08:31:01.596Z,99307.47
2022-08-16T08:33:31.171Z,99319.34
2022-08-16T08:36:00.799Z,99321.31
2022-08-16T08:38:45.742Z,99307.53
2022-08-16T08:41:13.825Z,99303.28
2022-08-16T08:43:48.996Z,99308.84
2022-08-16T08:46:21.727Z,99314.56
2022-08-16T08:48:59.565Z,99305.28
2022-08-16T08:51:27.462Z,99318.78
2022-08-16T08:53:58.065Z,99316.09
2022-08-16T08:56:25.866Z,99315.53
2022-08-16T08:58:58.078Z,99319.41
2022-08-16T09:01:36.923Z,99315.38
2022-08-16T09:04:10.462Z,99311.66
2022-08-16T09:06:43.218Z,99311.72
2022-08-16T09:09:16.797Z,99312.94
2022-08-16T09:11:47.262Z,99315.69
2022-08-16T09:14:24.301Z,99305.69
2022-08-16T09:17:01.346Z,99303.91
2022-08-16T09:19:35.193Z,99303.69
2022-08-16T09:22:02.153Z,99301.88
2022-08-16T09:24:46.615Z,99303.56
2022-08-16T09:27:15.947Z,99299.53
2022-08-16T09:29:45.562Z,99302.00
2022-08-16T09:32:12.553Z,99292.66
2022-08-16T09:34:58.327Z,99298.44
2022-08-16T09:37:29.785Z,99292.97
2022-08-16T09:39:59.638Z,99292.41
2022-08-16T09:42:28.960Z,99297.50
2022-08-16T09:45:10.995Z,99291.34
2022-08-16T09:47:56.922Z,99299.09
2022-08-16T09:50:36.720Z,99294.81
2022-08-16T09:53:15.009Z,99296.13
2022-08-16T09:55:46.327Z,99293.66
2022-08-16T09:58:37.771Z,99295.72
2022-08-16T10:01:08.446Z,99291.03
2022-08-16T10:03:35.350Z,99290.91
2022-08-16T10:06:02.157Z,99286.63
2022-08-16T10:08:28.779Z,99285.84
2022-08-16T10:10:55.406Z,99287.31
2022-08-16T10:13:22.123Z,99277.78
2022-08-16T10:15:53.382Z,99280.75
2022-08-16T10:18:56.348Z,99277.53
2022-08-16T10:21:09.340Z,99275.47
2022-08-16T10:23:35.981Z,99278.47
2022-08-16T10:27:20.022Z,99282.78
2022-08-16T10:28:50.349Z,99275.34
2022-08-16T10:31:44.412Z,99274.09
2022-08-16T10:34:04.764Z,99272.09
2022-08-16T10:36:54.275Z,99274.63
2022-08-16T10:39:21.375Z,99275.97
2022-08-16T10:41:48.028Z,99274.81
2022-08-16T10:44:14.835Z,99271.88
2022-08-16T10:46:44.419Z,99270.19
2022-08-16T10:49:12.676Z,99271.09
2022-08-16T10:52:03.138Z,99264.00
2022-08-16T10:54:31.548Z,99265.97
2022-08-16T10:56:59.835Z,99261.34
2022-08-16T10:59:38.245Z,99256.97
2022-08-16T11:02:59.226Z,99255.47
2022-08-16T11:05:08.768Z,99255.03
2022-08-16T11:07:51.717Z,99251.50
2022-08-16T11:16:25.797Z,99247.53
2022-08-16T11:19:04.315Z,99252.66
2022-08-16T11:21:35.081Z,99259.97
2022-08-16T11:24:01.907Z,99259.38
2022-08-16T11:26:30.364Z,99258.84
2022-08-16T11:29:13.852Z,99253.28
2022-08-16T11:31:45.590Z,99252.59
2022-08-16T11:34:16.205Z,99251.72
2022-08-16T11:36:57.246Z,99246.75
2022-08-16T11:39:29.217Z,99249.09
2022-08-16T11:41:56.559Z,99251.81
2022-08-16T11:44:53.102Z,99255.56
2022-08-16T11:47:11.645Z,99253.69
2022-08-16T11:49:38.351Z,99251.16
2022-08-16T11:52:05.209Z,99251.38
2022-08-16T11:54:36.177Z,99260.81
2022-08-16T11:57:04.242Z,99262.09
2022-08-16T11:59:36.950Z,99266.25
2022-08-16T12:02:31.094Z,99265.81
2022-08-16T12:04:56.587Z,99269.00
2022-08-16T12:07:24.156Z,99267.06
2022-08-16T12:09:53.465Z,99274.28
2022-08-16T12:12:21.052Z,99267.56
2022-08-16T12:14:59.363Z,99262.03
2022-08-16T12:17:31.621Z,99266.59
2022-08-16T12:19:59.880Z,99268.41
2022-08-16T12:22:27.788Z,99259.63
2022-08-16T12:24:54.499Z,99263.56
2022-08-16T12:27:23.475Z,99256.06
2022-08-16T12:29:52.076Z,99266.72
2022-08-16T12:32:35.922Z,99263.47
2022-08-16T12:35:07.673Z,99268.94
2022-08-16T12:37:35.284Z,99264.53
2022-08-16T12:40:02.383Z,99258.59
2022-08-16T12:42:34.649Z,99256.53
2022-08-16T12:45:05.121Z,99255.22
2022-08-16T12:47:31.808Z,99263.06
2022-08-16T12:49:58.691Z,99256.28
2022-08-16T12:52:33.056Z,99253.50
2022-08-16T12:55:00.634Z,99248.09
2022-08-16T12:57:36.175Z,99242.09
2022-08-16T13:00:07.122Z,99242.88
2022-08-16T13:02:36.608Z,99240.66
2022-08-16T13:05:06.928Z,99239.16
2022-08-16T13:07:37.362Z,99235.84
2022-08-16T13:10:21.114Z,99224.09
2022-08-16T13:12:52.969Z,99231.41
2022-08-16T13:15:25.334Z,99238.47
2022-08-16T13:17:52.159Z,99232.00
2022-08-16T13:20:24.532Z,99228.63
2022-08-16T13:23:03.697Z,99235.31
2022-08-16T13:25:32.594Z,99237.91
2022-08-16T13:28:16.893Z,99237.16
2022-08-16T13:30:54.714Z,99241.72
2022-08-16T13:33:30.806Z,99234.91
2022-08-16T13:36:00.092Z,99230.16
2022-08-16T13:38:32.689Z,99230.16
2022-08-16T13:41:08.417Z,99227.81
2022-08-16T13:43:36.494Z,99230.72
2022-08-16T13:46:04.651Z,99240.78
2022-08-16T13:48:42.713Z,99231.91
2022-08-16T13:51:15.758Z,99227.03
2022-08-16T13:53:59.852Z,99227.13
2022-08-16T13:56:38.047Z,99224.78
2022-08-16T13:59:14.227Z,99223.69
2022-08-16T14:01:55.025Z,99221.16
2022-08-16T14:04:28.225Z,99220.88
2022-08-16T14:07:00.734Z,99218.03
2022-08-16T14:09:29.283Z,99216.25
2022-08-16T14:11:57.871Z,99215.97
2022-08-16T14:14:29.150Z,99214.09
2022-08-16T14:16:58.352Z,99216.63
2022-08-16T14:19:25.313Z,99209.91
2022-08-16T14:22:15.401Z,99207.59
2022-08-16T14:24:48.231Z,99211.09
2022-08-16T14:27:17.164Z,99207.59
2022-08-16T14:29:45.565Z,99206.44
2022-08-16T14:32:32.705Z,99207.50
2022-08-16T14:35:07.735Z,99211.25
2022-08-16T14:37:35.162Z,99216.34
2022-08-16T14:40:03.106Z,99215.88
2022-08-16T14:42:30.268Z,99222.19
2022-08-16T14:44:57.122Z,99221.97
2022-08-16T14:47:23.848Z,99221.69
2022-08-16T14:49:52.327Z,99215.69
2022-08-16T14:52:44.625Z,99227.09
2022-08-16T14:55:10.912Z,99218.31
2022-08-16T14:57:39.619Z,99220.94
2022-08-16T15:00:11.211Z,99221.41
2022-08-16T15:02:40.409Z,99215.19
2022-08-16T15:05:10.514Z,99215.91
2022-08-16T15:07:40.213Z,99216.16
2022-08-16T15:10:21.490Z,99226.56
2022-08-16T15:12:50.617Z,99240.13
2022-08-16T15:15:18.916Z,99229.88
2022-08-16T15:17:56.647Z,99230.44
2022-08-16T15:20:29.408Z,99264.97
2022-08-16T15:22:59.141Z,99266.59
2022-08-16T15:25:33.548Z,99258.13
2022-08-16T15:28:02.095Z,99251.19
2022-08-16T15:30:57.554Z,99248.66
2022-08-16T15:33:19.673Z,99268.31
2022-08-16T15:35:47.801Z,99253.03
2022-08-16T15:38:56.981Z,99260.53
2022-08-16T15:41:02.952Z,99255.69
2022-08-16T15:43:39.256Z,99261.44
2022-08-16T15:46:06.444Z,99253.97
2022-08-16T15:48:35.324Z,99274.38
2022-08-16T15:51:08.257Z,99272.00
2022-08-16T15:53:41.886Z,99273.63
2022-08-16T15:56:09.849Z,99273.47
2022-08-16T15:58:38.928Z,99265.63
2022-08-16T16:01:06.036Z,99281.47
2022-08-16T16:03:34.496Z,99284.22
2022-08-16T16:06:01.696Z,99285.09
2022-08-16T16:08:28.935Z,99280.53
2022-08-16T16:11:00.287Z,99284.13
2022-08-16T16:13:31.311Z,99277.88
2022-08-16T16:16:02.856Z,99282.63
2022-08-16T16:18:31.383Z,99271.59
2022-08-16T16:21:01.685Z,99278.66
2022-08-16T16:23:35.738Z,99268.38
2022-08-16T16:26:12.606Z,99277.16
2022-08-16T16:29:05.074Z,99283.88
2022-08-16T16:31:28.313Z,99288.16
2022-08-16T16:34:03.375Z,99284.59
2022-08-16T16:36:32.278Z,99297.94
2022-08-16T16:39:02.197Z,99289.53
2022-08-16T16:41:30.375Z,99289.53
2022-08-16T16:43:59.603Z,99289.50
2022-08-16T16:46:41.326Z,99277.44
2022-08-16T16:49:14.211Z,99280.88
2022-08-16T16:51:41.358Z,99279.69
2022-08-16T16:54:13.223Z,99266.88
2022-08-16T16:56:40.486Z,99265.69
2022-08-16T16:59:16.546Z,99267.59
2022-08-16T17:01:57.462Z,99270.88
2022-08-16T17:04:36.655Z,99282.50
2022-08-16T17:07:03.883Z,99285.81
2022-08-16T17:09:40.341Z,99287.03
2022-08-16T17:12:09.415Z,99291.50
2022-08-16T17:14:38.418Z,99297.28
2022-08-16T17:17:08.761Z,99304.09
2022-08-16T17:19:40.145Z,99299.00
2022-08-16T17:22:15.842Z,99299.38
2022-08-16T17:24:50.627Z,99308.72
2022-08-16T17:27:32.503Z,99310.56
2022-08-16T17:30:02.329Z,99319.09
2022-08-16T17:35:19.666Z,99326.91
2022-08-16T17:37:54.335Z,99338.84
2022-08-16T17:39:27.123Z,99325.53
2022-08-16T17:40:40.432Z,99325.34
2022-08-16T17:43:14.554Z,99322.16
2022-08-16T17:45:42.618Z,99331.63
2022-08-16T17:48:09.572Z,99332.06
2022-08-16T17:50:43.104Z,99334.84
2022-08-16T17:53:13.458Z,99329.47
2022-08-16T17:55:44.784Z,99335.00
2022-08-16T17:58:23.468Z,99338.88
2022-08-16T18:00:53.813Z,99349.22
2022-08-16T18:04:02.683Z,99345.53
2022-08-16T18:06:13.802Z,99347.00
2022-08-16T18:08:40.916Z,99356.28
2022-08-16T18:11:10.174Z,99352.09
2022-08-16T18:13:39.320Z,99361.88
2022-08-16T18:16:06.266Z,99367.94
2022-08-16T18:18:33.003Z,99367.94
2022-08-16T18:20:59.758Z,99369.81
2022-08-16T18:23:27.294Z,99377.06
2022-08-16T18:25:59.233Z,99375.72
2022-08-16T18:28:27.867Z,99377.91
2022-08-16T18:31:00.790Z,99372.84
2022-08-16T18:33:28.787Z,99373.28
2022-08-16T18:35:57.820Z,99371.00
2022-08-16T18:38:25.119Z,99372.34
2022-08-16T18:40:52.711Z,99371.50
2022-08-16T18:43:54.421Z,99368.34
2022-08-16T18:46:13.153Z,99368.81
2022-08-16T18:48:39.792Z,99368.53
2022-08-16T18:51:16.574Z,99373.63
2022-08-16T18:53:48.271Z,99370.16
2022-08-16T18:56:16.443Z,99369.84
2022-08-16T18:58:43.068Z,99373.59
2022-08-16T19:01:09.756Z,99373.28
2022-08-16T19:03:36.445Z,99375.66
2022-08-16T19:06:11.297Z,99370.94
2022-08-16T19:08:40.272Z,99372.59
2022-08-16T19:11:09.719Z,99376.34
2022-08-16T19:13:36.383Z,99390.84
2022-08-16T19:16:04.374Z,99384.44
2022-08-16T19:18:36.565Z,99378.38
2022-08-16T19:21:05.031Z,99374.97
2022-08-16T19:23:33.890Z,99371.34
2022-08-16T19:26:24.721Z,99379.63
2022-08-16T19:28:58.355Z,99381.16
2022-08-16T19:31:33.751Z,99371.38
2022-08-16T19:34:02.957Z,99373.06
2022-08-16T19:36:36.711Z,99375.81
2022-08-16T19:39:11.839Z,99378.53
2022-08-16T19:41:41.728Z,99379.53
2022-08-16T19:44:08.958Z,99377.50
2022-08-16T19:46:37.835Z,99384.16
2022-08-16T19:49:05.626Z,99388.88
2022-08-16T19:51:32.935Z,99389.41
2022-08-16T19:54:02.900Z,99394.56
2022-08-16T19:56:29.650Z,99380.81
2022-08-16T19:59:18.015Z,99382.84
2022-08-16T20:01:44.506Z,99386.94
2022-08-16T20:04:12.842Z,99388.34
2022-08-16T20:06:41.074Z,99384.53
2022-08-16T20:09:08.334Z,99379.44
2022-08-16T20:11:39.920Z,99380.81
2022-08-16T20:14:06.547Z,99389.59
2022-08-16T20:16:33.376Z,99387.84
2022-08-16T20:18:59.988Z,99390.00
2022-08-16T20:21:26.703Z,99394.47
2022-08-16T20:23:58.310Z,99399.09
2022-08-16T20:26:38.058Z,99407.88
2022-08-16T20:29:04.701Z,99402.56
2022-08-16T20:31:31.322Z,99404.81
2022-08-16T20:33:58.061Z,99404.03
2022-08-16T20:36:24.678Z,99402.25
2022-08-16T20:38:51.318Z,99405.47
2022-08-16T20:41:18.077Z,99395.63
2022-08-16T20:43:46.259Z,99404.00
2022-08-16T20:46:13.413Z,99404.06
2022-08-16T20:48:40.060Z,99398.00
2022-08-16T20:51:06.708Z,99404.91
2022-08-16T20:53:33.442Z,99403.16
2022-08-16T20:56:00.182Z,99403.19
2022-08-16T20:58:26.906Z,99411.97
2022-08-16T21:00:53.616Z,99406.34
2022-08-16T21:03:20.266Z,99404.63
2022-08-16T21:05:48.230Z,99405.34
2022-08-16T21:08:50.569Z,99406.16
2022-08-16T21:11:05.702Z,99409.38
2022-08-16T21:13:33.406Z,99414.44
2022-08-16T21:16:01.585Z,99413.72
2022-08-16T21:18:28.627Z,99418.03
2022-08-16T21:20:55.611Z,99417.06
2022-08-16T21:23:22.290Z,99413.50
2022-08-16T21:25:57.828Z,99421.59
2022-08-16T21:28:41.911Z,99424.94
2022-08-16T21:31:13.228Z,99417.06
2022-08-16T21:33:40.861Z,99422.84
2022-08-16T21:36:08.057Z,99422.84
2022-08-16T21:38:34.921Z,99422.88
2022-08-16T21:41:07.159Z,99430.34
2022-08-16T21:43:34.936Z,99422.72
2022-08-16T21:46:03.387Z,99429.06
2022-08-16T21:48:32.627Z,99426.97
2022-08-16T21:51:10.578Z,99434.03
2022-08-16T21:53:37.812Z,99429.94
2022-08-16T21:56:05.498Z,99427.38
2022-08-16T21:58:32.819Z,99429.19
2022-08-16T22:01:00.487Z,99431.34
2022-08-16T22:03:35.839Z,99443.63
2022-08-16T22:06:13.824Z,99436.72
2022-08-16T22:08:50.527Z,99444.75
2022-08-16T22:11:23.842Z,99438.13
2022-08-16T22:13:58.856Z,99441.66
2022-08-16T22:16:30.243Z,99445.31
2022-08-16T22:18:57.036Z,99448.88
2022-08-16T22:21:23.776Z,99444.34
2022-08-16T22:23:55.150Z,99447.03
2022-08-16T22:26:30.193Z,99449.84
2022-08-16T22:29:03.632Z,99450.00
2022-08-16T22:31:31.659Z,99455.78
2022-08-16T22:33:59.242Z,99448.72
2022-08-16T22:36:28.033Z,99454.94
2022-08-16T22:38:58.093Z,99450.84
2022-08-16T22:41:25.639Z,99447.41
2022-08-16T22:43:52.802Z,99454.19
2022-08-16T22:46:19.577Z,99446.38
2022-08-16T22:48:46.685Z,99443.53
2022-08-16T22:51:13.489Z,99446.78
2022-08-16T22:53:41.435Z,99443.56
2022-08-16T22:56:08.679Z,99437.75
2022-08-16T22:58:36.955Z,99438.91
2022-08-16T23:01:07.133Z,99437.66
2022-08-16T23:03:34.466Z,99440.78
2022-08-16T23:06:01.131Z,99443.34
2022-08-16T23:08:38.702Z,99439.31
2022-08-16T23:11:28.488Z,99439.81
2022-08-16T23:13:56.726Z,99432.81
2022-08-16T23:16:32.516Z,99436.84
2022-08-16T23:19:04.590Z,99428.50
2022-08-16T23:21:32.039Z,99430.69
2022-08-16T23:23:58.699Z,99432.72
2022-08-16T23:26:46.919Z,99431.91
2022-08-16T23:29:21.944Z,99426.72
2022-08-16T23:31:56.381Z,99429.41
2022-08-16T23:34:24.026Z,99434.75
2022-08-16T23:36:50.684Z,99440.34
2022-08-16T23:39:17.326Z,99438.06
2022-08-16T23:41:44.072Z,99440.31
2022-08-16T23:44:55.725Z,99445.41
2022-08-16T23:46:57.308Z,99450.88
2022-08-16T23:49:57.983Z,99457.56
2022-08-16T23:52:10.779Z,99449.84
2022-08-16T23:54:37.417Z,99452.44
2022-08-16T23:57:04.539Z,99454.81
2022-08-16T23:59:35.278Z,99457.81
